Las Vegas, Nevada
Current Conditions -  °F | °C
As of 1:56 AM on Monday 26 Jan 2015 (Local Time) from KLAS Reporting Station
Scattered Clouds Scattered Clouds  
Wind Chill: 54°   Ceiling: Unl
Heat Index: 54°   Visibility: 10mi
Dew Point: 32°   Wind: 8mph
Humidity: 43%   Direction: 220°SW
Pressure: 30.14"   Gusts: NA
Location:  36.17°N, 115.13°W
Report Text: KLAS 260956Z 22007KT 10SM SCT250 12/00 A3014 RMK AO2 SLP195 T01220000
Loading
Personal Weather Stations






























Interactive Weather Map New forecast layout! Learn more

10-Day Weather Forecast

Advertisements
Track Severe Weather on mobile